Data for 06/10/2007

Time Sea-Level Adjusted Pressure Absolute Pressure Temperature Relative Humidity Dew Point   
(mb) (inHg) (mb) (inHg) (C) (F) (%) (C) (F)
00:05 1014 29.94 843 24.89 18.6 65.5 32 1.6 34.9
00:10 1014 29.94 843 24.89 18.6 65.4 31 1.2 34.1
00:15 1014 29.94 843 24.89 18.6 65.5 32 1.6 34.9
00:20 1014 29.94 843 24.89 18.5 65.2 32 1.5 34.6
00:25 1014 29.94 843 24.89 18.5 65.2 32 1.5 34.7
00:30 1014 29.94 843 24.89 18.6 65.5 31 1.1 34
00:35 1014 29.94 843 24.89 18.8 65.8 31 1.6 34.9
00:40 1013 29.91 843 24.89 18.6 65.5 32 1.7 35
00:45 1013 29.91 843 24.89 18.5 65.4 32 1.7 35
00:50 1013 29.91 843 24.89 18.5 65.3 33 1.9 35.5
00:55 1013 29.91 843 24.89 18.1 64.7 34 2 35.6
01:00 1013 29.91 842 24.86 18 64.3 35 2.3 36.1
01:05 1013 29.91 842 24.86 18.1 64.6 34 2.2 36
01:10 1013 29.91 842 24.86 18.2 64.7 34 2 35.6
01:15 1013 29.91 843 24.89 18.2 64.7 35 2.4 36.3
01:20 1013 29.91 843 24.89 17.9 64.3 35 2.4 36.3
01:25 1013 29.91 842 24.86 17.9 64.2 35 2.3 36.1
01:30 1013 29.91 843 24.89 18 64.4 35 2.3 36.2
01:35 1013 29.91 843 24.89 18 64.4 35 2.3 36.1
01:40 1013 29.91 843 24.89 18 64.3 35 2.3 36.1
01:45 1013 29.91 843 24.89 18.1 64.6 33 1.9 35.5
01:50 1013 29.91 843 24.89 18.4 65.1 33 2.2 35.9
01:55 1013 29.91 843 24.89 18.3 65 34 2.5 36.5
02:00 1013 29.91 843 24.89 18.1 64.6 35 2.6 36.7
02:05 1013 29.91 842 24.86 18.2 64.8 34 2.2 36
02:10 1013 29.91 842 24.86 17.7 63.9 42 4.7 40.4
02:15 1013 29.91 842 24.86 16 60.8 47 4.8 40.6
02:20 1013 29.91 842 24.86 15.6 60 44 3.3 38
02:25 1013 29.91 842 24.86 16.1 61.1 44 4 39.3
02:30 1013 29.91 843 24.89 15.9 60.7 46 4.4 40
02:35 1013 29.91 842 24.86 15.8 60.5 43 3.4 38.2
02:40 1013 29.91 842 24.86 16.3 61.3 40 2.9 37.3
02:45 1013 29.91 842 24.86 16.8 62.2 42 3.8 38.9
02:50 1013 29.91 842 24.86 16.4 61.4 44 4.2 39.5
02:55 1013 29.91 842 24.86 15.6 60.2 46 4.2 39.6
03:00 1013 29.91 842 24.86 15.4 59.7 47 4.2 39.5
03:05 1013 29.91 842 24.86 15.2 59.4 48 4.2 39.6
03:10 1013 29.91 842 24.86 15.2 59.4 47 4 39.2
03:15 1013 29.91 842 24.86 15.3 59.5 46 4 39.2
03:20 1013 29.91 842 24.86 15.5 59.9 45 3.7 38.6
03:25 1013 29.91 842 24.86 15.8 60.4 44 3.6 38.5
03:30 1013 29.91 842 24.86 15.9 60.6 44 3.7 38.7
03:35 1013 29.91 842 24.86 15.9 60.6 44 3.7 38.6
03:40 1013 29.91 842 24.86 16.1 60.9 43 3.6 38.4
03:45 1013 29.91 842 24.86 16.3 61.3 43 3.7 38.6
03:50 1013 29.91 842 24.86 16.2 61.1 43 3.7 38.6
03:55 1013 29.91 842 24.86 16 60.9 43 3.6 38.5
04:00 1013 29.91 842 24.86 16.1 60.9 43 3.8 38.8
04:05 1013 29.91 842 24.86 15.9 60.7 45 4.1 39.3
04:10 1013 29.91 842 24.86 15.8 60.4 46 4.4 39.9
04:15 1013 29.91 842 24.86 15.7 60.2 46 4.1 39.4
04:20 1013 29.91 842 24.86 15.6 60.1 47 4.3 39.8
04:25 1013 29.91 842 24.86 15.5 59.9 46 4.1 39.4
04:30 1013 29.91 842 24.86 15.6 60.1 47 4.4 39.9
04:35 1013 29.91 842 24.86 15.7 60.2 44 3.7 38.6
04:40 1013 29.91 842 24.86 15.8 60.4 44 3.6 38.6
04:45 1013 29.91 842 24.86 15.8 60.4 44 3.5 38.3
04:50 1013 29.91 842 24.86 16 60.7 44 3.7 38.6
04:55 1013 29.91 842 24.86 15.9 60.6 44 3.7 38.6
05:00 1013 29.91 842 24.86 15.9 60.5 43 3.4 38.1
05:05 1013 29.91 842 24.86 16 60.7 44 3.7 38.6
05:10 1013 29.91 842 24.86 16 60.8 42 3.2 37.7
05:15 1013 29.91 842 24.86 16.1 61 44 4 39.2
05:20 1013 29.91 842 24.86 16 60.8 43 3.4 38.1
05:25 1013 29.91 842 24.86 15.9 60.6 46 4.3 39.7
05:30 1013 29.91 842 24.86 15.5 59.9 48 4.5 40.2
05:35 1013 29.91 842 24.86 15.2 59.3 48 4.4 39.9
05:40 1013 29.91 842 24.86 14.9 58.9 51 5.1 41.2
05:45 1013 29.91 842 24.86 14.4 57.9 53 5.1 41.2
05:50 1013 29.91 842 24.86 14.2 57.5 55 5.2 41.4
05:55 1013 29.91 842 24.86 14.1 57.4 53 4.7 40.4
06:00 1013 29.91 842 24.86 14.5 58.1 49 4.1 39.4
06:05 1013 29.91 842 24.86 14.8 58.6 50 4.5 40.1
06:10 1013 29.91 842 24.86 14.8 58.6 52 5 40.9
06:15 1013 29.91 842 24.86 14.9 58.8 51 5 40.9
06:20 1013 29.91 842 24.86 14.9 58.9 52 5.3 41.6
06:25 1013 29.91 842 24.86 14.8 58.7 52 5.1 41.2
06:30 1013 29.91 842 24.86 14.8 58.7 53 5.3 41.6
06:35 1013 29.91 842 24.86 14.9 58.8 48 4 39.2
06:40 1013 29.91 842 24.86 15.2 59.4 53 5.7 42.3
06:45 1013 29.91 842 24.86 14.3 57.7 57 5.8 42.5
06:50 1013 29.91 842 24.86 14 57.2 57 5.7 42.3
06:55 1013 29.91 842 24.86 14.1 57.3 54 4.9 40.8
07:00 1013 29.91 842 24.86 14.3 57.8 53 5.1 41.1
07:05 1013 29.91 842 24.86 14.5 58.1 51 4.6 40.2
07:10 1013 29.91 842 24.86 14.7 58.4 50 4.5 40.1
07:15 1013 29.91 842 24.86 14.9 58.9 48 4.1 39.3
07:20 1013 29.91 842 24.86 15.3 59.6 47 4.1 39.3
07:25 1013 29.91 842 24.86 15.5 59.9 46 3.9 39
07:30 1013 29.91 842 24.86 15.4 59.8 54 6.2 43.1
07:35 1013 29.91 842 24.86 14.9 58.9 48 4.1 39.4
07:40 1013 29.91 842 24.86 15.3 59.5 47 4.1 39.4
07:45 1013 29.91 842 24.86 15.4 59.8 53 6.1 43
07:50 1013 29.91 842 24.86 15.3 59.6 53 5.8 42.4
07:55 1013 29.91 842 24.86 15.3 59.6 55 6.3 43.4
08:00 1012 29.88 842 24.86 15.3 59.6 56 6.6 43.9
08:05 1012 29.88 842 24.86 15.4 59.7 56 6.8 44.2
08:10 1012 29.88 842 24.86 15.5 59.9 55 6.5 43.8
08:15 1012 29.88 842 24.86 15.7 60.3 54 6.4 43.6
08:20 1012 29.88 841 24.83 15.9 60.6 56 7.1 44.8
08:25 1012 29.88 842 24.86 15.8 60.4 54 6.4 43.6
08:30 1012 29.88 842 24.86 16 60.8 52 6.1 43
08:35 1012 29.88 842 24.86 16.2 61.2 51 6.3 43.3
08:40 1012 29.88 841 24.83 16.4 61.6 50 6.1 43
08:45 1012 29.88 842 24.86 16.7 62 48 5.9 42.5
08:50 1012 29.88 842 24.86 17 62.7 47 5.6 42.1
08:55 1012 29.88 842 24.86 17.4 63.3 47 6.2 43.2
09:00 1012 29.88 842 24.86 17.6 63.6 46 6 42.9
09:05 1012 29.88 841 24.83 18 64.3 46 6.3 43.3
09:10 1012 29.88 841 24.83 18.6 65.4 44 6.2 43.2
09:15 1012 29.88 841 24.83 18.6 65.5 46 6.9 44.4
09:20 1012 29.88 841 24.83 18.9 66 43 6 42.8
09:25 1012 29.88 841 24.83 19.4 66.9 40 5.7 42.2
09:30 1012 29.88 841 24.83 19.7 67.5 35 4.1 39.3
09:35 1012 29.88 841 24.83 20.2 68.3 37 5.3 41.6
09:40 1012 29.88 841 24.83 20.9 69.6 34 4.6 40.4
09:45 1012 29.88 841 24.83 21 69.8 33 4.5 40.1
09:50 1012 29.88 841 24.83 20.4 68.8 36 4.9 40.8
09:55 1012 29.88 842 24.86 20.3 68.6 36 4.8 40.6
10:00 1012 29.88 842 24.86 20.5 68.9 34 4.5 40
10:05 1012 29.88 842 24.86 20.5 68.8 35 4.7 40.5
10:10 1012 29.88 842 24.86 20.4 68.6 35 4.7 40.5
10:15 1012 29.88 842 24.86 20.4 68.7 35 4.8 40.6
10:20 1012 29.88 842 24.86 20.2 68.3 36 4.6 40.3
10:25 1012 29.88 842 24.86 20 68 40 6.1 42.9
10:30 1013 29.91 842 24.86 19.8 67.6 41 6.3 43.3
10:35 1013 29.91 842 24.86 19.6 67.3 47 8 46.5
10:40 1013 29.91 842 24.86 19.2 66.5 50 8.5 47.4
10:45 1013 29.91 842 24.86 19.1 66.4 47 7.8 46
10:50 1013 29.91 842 24.86 18.8 65.8 48 7.7 45.8
10:55 1013 29.91 842 24.86 18.7 65.7 49 8 46.4
11:00 1013 29.91 842 24.86 18.7 65.6 52 8.9 48
11:05 1013 29.91 842 24.86 18.9 66 52 8.9 48.1
11:10 1013 29.91 842 24.86 19 66.2 48 8 46.3
11:15 1013 29.91 842 24.86 18.8 65.8 46 6.9 44.5
11:20 1013 29.91 842 24.86 18.6 65.6 48 7.6 45.6
11:25 1013 29.91 842 24.86 18.6 65.5 46 7 44.6
11:30 1013 29.91 842 24.86 18.5 65.3 43 5.7 42.3
11:35 1013 29.91 842 24.86 18.7 65.6 42 5.7 42.3
11:40 1013 29.91 842 24.86 18.8 65.8 39 4.9 40.7
11:45 1013 29.91 842 24.86 19 66.2 41 5.6 42.2
11:50 1013 29.91 842 24.86 19.1 66.4 42 6 42.9
11:55 1013 29.91 842 24.86 19.3 66.7 42 6.2 43.1
12:00 1013 29.91 842 24.86 19.2 66.6 38 4.6 40.2
12:05 1013 29.91 842 24.86 19.2 66.6 39 5.1 41.3
12:10 1013 29.91 842 24.86 19 66.2 41 5.5 41.9
12:15 1013 29.91 842 24.86 19 66.1 42 5.9 42.6
12:20 1013 29.91 842 24.86 18.7 65.7 43 5.9 42.7
12:25 1013 29.91 842 24.86 18.7 65.7 41 5.2 41.3
12:30 1013 29.91 842 24.86 18.6 65.5 43 5.8 42.4
12:35 1013 29.91 842 24.86 18.5 65.3 44 6.1 42.9
12:40 1013 29.91 842 24.86 18.4 65.1 40 4.9 40.7
12:45 1013 29.91 842 24.86 18.2 64.8 44 6 42.8
12:50 1013 29.91 842 24.86 18.2 64.7 43 5.6 42.1
12:55 1013 29.91 842 24.86 18.1 64.5 42 5 41.1
13:00 1013 29.91 842 24.86 18.1 64.6 45 6.2 43.1
13:05 1013 29.91 842 24.86 18.1 64.6 44 5.9 42.6
13:10 1013 29.91 842 24.86 18.2 64.7 42 5.2 41.4
13:15 1013 29.91 842 24.86 18.1 64.6 44 5.7 42.3
13:20 1013 29.91 842 24.86 18.2 64.7 42 5.1 41.1
13:25 1013 29.91 842 24.86 18 64.4 44 5.7 42.2
13:30 1013 29.91 842 24.86 18 64.3 44 5.8 42.5
13:35 1013 29.91 842 24.86 18 64.4 48 7.1 44.7
13:40 1013 29.91 842 24.86 17.9 64.2 47 6.5 43.6
13:45 1013 29.91 842 24.86 17.5 63.5 46 5.7 42.3
13:50 1013 29.91 842 24.86 17.5 63.5 45 5.6 42
13:55 1013 29.91 842 24.86 17.6 63.7 44 5.5 41.9
14:00 1013 29.91 842 24.86 17.6 63.7 46 6.1 43
14:05 1013 29.91 842 24.86 17.7 63.9 44 5.4 41.7
14:10 1013 29.91 842 24.86 17.9 64.1 42 5 41
14:15 1013 29.91 842 24.86 17.9 64.3 42 5.1 41.1
14:20 1013 29.91 842 24.86 18 64.4 42 5.1 41.2
14:25 1013 29.91 842 24.86 18.4 65 42 5.2 41.4
14:30 1013 29.91 842 24.86 18.5 65.3 42 5.4 41.6
14:35 1013 29.91 842 24.86 19.1 66.3 39 4.9 40.9
14:40 1013 29.91 842 24.86 19.2 66.6 39 5.1 41.2
14:45 1013 29.91 842 24.86 19.5 67 38 4.9 40.9
14:50 1013 29.91 842 24.86 19.8 67.7 39 5.7 42.3
14:55 1013 29.91 842 24.86 20.3 68.5 37 5.3 41.6
15:00 1013 29.91 842 24.86 20.2 68.4 38 5.5 41.9
15:05 1013 29.91 842 24.86 19.9 67.8 38 5.5 41.8
15:10 1013 29.91 842 24.86 19.7 67.5 40 5.8 42.5
15:15 1013 29.91 842 24.86 19.9 67.9 42 6.9 44.4
15:20 1013 29.91 842 24.86 19.8 67.7 41 6.4 43.5
15:25 1013 29.91 842 24.86 19.8 67.7 40 6.1 43.1
15:30 1013 29.91 842 24.86 19.7 67.5 43 6.8 44.2
15:35 1013 29.91 842 24.86 19.3 66.8 41 5.9 42.7
15:40 1013 29.91 842 24.86 18.8 65.9 43 6.2 43.1
15:45 1013 29.91 842 24.86 18.6 65.4 43 5.8 42.5
15:50 1013 29.91 842 24.86 18.6 65.4 44 6.1 43
15:55 1013 29.91 842 24.86 18.7 65.6 43 5.9 42.7
16:00 1013 29.91 842 24.86 18.7 65.7 45 6.5 43.8
16:05 1013 29.91 842 24.86 18.8 65.8 47 7.3 45.1
16:10 1013 29.91 842 24.86 18.8 65.8 46 7.2 44.9
16:15 1013 29.91 842 24.86 18.7 65.7 46 6.8 44.3
16:20 1013 29.91 842 24.86 18.7 65.7 45 6.8 44.2
16:25 1013 29.91 842 24.86 18.5 65.3 47 7 44.5
16:30 1013 29.91 842 24.86 18.2 64.8 47 7 44.5
16:35 1013 29.91 842 24.86 18.1 64.6 48 7 44.6
16:40 1012 29.88 842 24.86 17.9 64.2 50 7.3 45.2
16:45 1012 29.88 842 24.86 17.4 63.4 51 7.3 45.1
16:50 1012 29.88 842 24.86 17.3 63.1 52 7.5 45.6
16:55 1012 29.88 842 24.86 17.1 62.8 52 7.3 45.1
17:00 1012 29.88 841 24.83 17.3 63.1 51 7.2 45
17:05 1012 29.88 841 24.83 17.3 63.1 52 7.6 45.6
17:10 1012 29.88 841 24.83 17.3 63.1 51 7.2 44.9
17:15 1012 29.88 841 24.83 17.2 63 51 7.2 45
17:20 1012 29.88 842 24.86 17 62.5 53 7.5 45.5
17:25 1012 29.88 842 24.86 16.7 62.1 54 7.5 45.5
17:30 1012 29.88 842 24.86 16.7 62.1 53 7.3 45.1
17:35 1012 29.88 842 24.86 16.6 61.9 54 7.3 45.2
17:40 1012 29.88 841 24.83 16.6 62 53 7.1 44.8
17:45 1012 29.88 841 24.83 16.5 61.6 54 7.2 45
17:50 1012 29.88 841 24.83 16.4 61.6 53 6.9 44.4
17:55 1012 29.88 841 24.83 16.4 61.5 54 7.1 44.8
18:00 1012 29.88 841 24.83 16.4 61.5 54 7.1 44.8
18:05 1012 29.88 841 24.83 16.3 61.3 56 7.5 45.5
18:10 1012 29.88 841 24.83 16.2 61.1 55 7.2 44.9
18:15 1012 29.88 841 24.83 16.3 61.4 54 7 44.7
18:20 1012 29.88 841 24.83 16.3 61.4 53 6.7 44.1
18:25 1012 29.88 841 24.83 16.5 61.6 55 7.5 45.4
18:30 1012 29.88 841 24.83 16.8 62.2 56 8.1 46.6
18:35 1012 29.88 841 24.83 16.8 62.3 57 8.4 47.1
18:40 1012 29.88 841 24.83 16.7 62 58 8.4 47.1
18:45 1012 29.88 841 24.83 16.7 62 59 8.6 47.5
18:50 1012 29.88 841 24.83 16.7 62.1 56 7.9 46.2
18:55 1012 29.88 841 24.83 16.6 61.9 57 8.1 46.6
19:00 1012 29.88 841 24.83 16.5 61.7 59 8.5 47.2
19:05 1012 29.88 841 24.83 16.3 61.4 59 8.5 47.2
19:10 1012 29.88 841 24.83 16.1 61 58 7.8 46.1
19:15 1012 29.88 841 24.83 16.1 60.9 61 8.7 47.7
19:20 1012 29.88 841 24.83 15.8 60.5 59 8 46.4
19:25 1012 29.88 841 24.83 15.8 60.5 58 7.8 46
19:30 1012 29.88 841 24.83 16 60.9 58 8 46.3
19:35 1012 29.88 841 24.83 16.2 61.1 56 7.4 45.3
19:40 1012 29.88 841 24.83 16.2 61.2 53 6.9 44.4
19:45 1012 29.88 841 24.83 16.2 61.1 56 7.4 45.3
19:50 1012 29.88 841 24.83 16.1 61 56 7.4 45.4
19:55 1012 29.88 841 24.83 16.2 61.1 57 7.6 45.7
20:00 1012 29.88 841 24.83 16.2 61.1 57 7.8 46
20:05 1012 29.88 841 24.83 16.2 61.1 57 7.8 46.1
20:10 1012 29.88 841 24.83 16.3 61.3 57 7.9 46.1
20:15 1012 29.88 841 24.83 16.3 61.4 58 8.1 46.5
20:20 1012 29.88 841 24.83 16.3 61.3 57 7.8 46.1
20:25 1012 29.88 841 24.83 16.2 61.1 56 7.4 45.3
20:30 1012 29.88 841 24.83 16.2 61.1 56 7.6 45.7
20:35 1012 29.88 841 24.83 16.2 61.2 56 7.4 45.4
20:40 1012 29.88 841 24.83 16.3 61.3 55 7.3 45.1
20:45 1012 29.88 841 24.83 16.2 61.1 56 7.6 45.6
20:50 1011 29.85 841 24.83 16.1 61 55 7.2 45
20:55 1011 29.85 841 24.83 16.2 61.1 55 7.3 45.1
21:00 1011 29.85 841 24.83 16.1 60.9 59 8.1 46.6
21:05 1012 29.88 841 24.83 15.7 60.3 60 8.1 46.6
21:10 1012 29.88 841 24.83 15.4 59.6 62 8.2 46.7
21:15 1012 29.88 841 24.83 15.1 59.1 63 8.1 46.6
21:20 1012 29.88 841 24.83 15.1 59.1 62 8 46.3
21:25 1012 29.88 841 24.83 15.1 59.2 63 8.3 46.9
21:30 1012 29.88 841 24.83 14.9 58.8 68 9.1 48.4
21:35 1012 29.88 841 24.83 14.8 58.6 65 8.4 47.1
21:40 1012 29.88 841 24.83 14.6 58.2 61 7.1 44.9
21:45 1012 29.88 841 24.83 14.8 58.7 63 8 46.5
21:50 1012 29.88 841 24.83 14.8 58.6 65 8.3 47
21:55 1012 29.88 841 24.83 14.5 58 63 7.6 45.7
22:00 1012 29.88 841 24.83 14.7 58.4 62 7.5 45.5
22:05 1012 29.88 841 24.83 14.7 58.4 64 8 46.4
22:10 1012 29.88 841 24.83 14.6 58.2 65 8.1 46.5
22:15 1012 29.88 841 24.83 14.4 58 65 8.1 46.5
22:20 1012 29.88 841 24.83 14.5 58.2 59 6.7 44
22:25 1012 29.88 841 24.83 15.1 59.1 59 7.3 45.2
22:30 1012 29.88 841 24.83 15.2 59.3 53 5.8 42.4
22:35 1012 29.88 841 24.83 15.7 60.3 54 6.4 43.5
22:40 1012 29.88 841 24.83 15.6 60.1 56 6.9 44.3
22:45 1011 29.85 841 24.83 15.5 60 50 5.2 41.4
22:50 1011 29.85 841 24.83 16.6 61.8 46 5.1 41.2
22:55 1011 29.85 841 24.83 16.9 62.4 54 7.6 45.7
23:00 1011 29.85 841 24.83 15.7 60.3 56 7.1 44.7
23:05 1011 29.85 841 24.83 15.5 59.9 56 7 44.5
23:10 1011 29.85 841 24.83 15.7 60.2 57 7.2 45
23:15 1011 29.85 841 24.83 15.7 60.3 52 6.1 42.9
23:20 1011 29.85 840 24.81 15.9 60.6 51 6 42.8
23:25 1011 29.85 840 24.81 16 60.9 51 6.1 42.9
23:30 1011 29.85 840 24.81 16 60.9 51 6.1 42.9
23:35 1011 29.85 840 24.81 16.2 61.1 49 5.6 42.1
23:40 1011 29.85 841 24.83 16.5 61.6 47 5.2 41.3
23:45 1011 29.85 841 24.83 16.9 62.5 46 5.4 41.7
23:50 1011 29.85 841 24.83 17 62.7 45 5.3 41.5
23:55 1012 29.88 841 24.83 17.2 62.9 45 5.2 41.4
24:00 1012 29.88 841 24.83 17.2 62.9 47 5.8 42.5